createdAt,value
2018-09-21T00:00:19.638Z,8.45
2018-09-21T00:02:55.400Z,8.11
2018-09-21T00:05:31.120Z,7.81
2018-09-21T00:08:07.139Z,7.23
2018-09-21T00:10:42.862Z,7.07
2018-09-21T00:13:18.497Z,7.08
2018-09-21T00:15:54.251Z,7.00
2018-09-21T00:18:29.896Z,7.09
2018-09-21T00:21:05.582Z,7.16
2018-09-21T00:23:41.302Z,7.25
2018-09-21T00:26:17.055Z,7.42
2018-09-21T00:28:52.635Z,7.70
2018-09-21T00:31:28.337Z,7.96
2018-09-21T00:34:04.081Z,8.11
2018-09-21T00:36:39.822Z,8.51
2018-09-21T00:39:15.564Z,8.69
2018-09-21T00:41:51.289Z,8.20
2018-09-21T00:44:27.102Z,7.81
2018-09-21T00:47:02.959Z,7.57
2018-09-21T00:49:38.751Z,7.48
2018-09-21T00:52:14.625Z,7.39
2018-09-21T00:54:50.329Z,6.92
2018-09-21T00:57:26.304Z,6.67
2018-09-21T01:00:02.144Z,6.55
2018-09-21T01:02:37.784Z,6.69
2018-09-21T01:05:13.606Z,7.05
2018-09-21T01:07:49.457Z,7.14
2018-09-21T01:10:25.129Z,7.37
2018-09-21T01:13:00.993Z,7.22
2018-09-21T01:15:36.831Z,7.61
2018-09-21T01:18:12.763Z,7.63
2018-09-21T01:20:48.353Z,7.37
2018-09-21T01:23:24.222Z,7.47
2018-09-21T01:26:00.111Z,7.54
2018-09-21T01:28:35.947Z,7.43
2018-09-21T01:31:11.807Z,7.15
2018-09-21T01:33:47.669Z,7.10
2018-09-21T01:36:23.494Z,7.19
2018-09-21T01:38:59.385Z,7.18
2018-09-21T01:41:34.981Z,7.23
2018-09-21T01:44:10.887Z,7.64
2018-09-21T01:46:46.634Z,7.38
2018-09-21T01:49:22.348Z,6.88
2018-09-21T01:51:58.070Z,6.51
2018-09-21T01:54:33.669Z,6.29
2018-09-21T01:57:09.533Z,6.27
2018-09-21T01:59:45.446Z,6.34
2018-09-21T02:02:53.093Z,6.66
2018-09-21T02:05:28.837Z,6.81
2018-09-21T02:08:04.675Z,7.17
2018-09-21T02:10:40.394Z,7.20
2018-09-21T02:13:16.169Z,7.56
2018-09-21T02:15:51.968Z,7.65
2018-09-21T02:18:27.647Z,7.87
2018-09-21T02:21:03.496Z,7.66
2018-09-21T02:23:39.079Z,7.41
2018-09-21T02:26:14.718Z,7.47
2018-09-21T02:28:50.433Z,7.30
2018-09-21T02:31:26.273Z,7.25
2018-09-21T02:34:02.081Z,6.56
2018-09-21T02:36:37.993Z,6.57
2018-09-21T02:39:13.805Z,6.67
2018-09-21T02:41:49.721Z,6.82
2018-09-21T02:44:25.412Z,7.00
2018-09-21T02:47:01.277Z,6.92
2018-09-21T02:49:36.952Z,7.00
2018-09-21T02:52:13.190Z,7.19
2018-09-21T02:54:48.837Z,7.31
2018-09-21T02:57:24.503Z,7.27
2018-09-21T03:00:00.376Z,7.08
2018-09-21T03:02:35.990Z,6.84
2018-09-21T03:05:11.664Z,6.95
2018-09-21T03:07:47.544Z,6.70
2018-09-21T03:10:23.403Z,6.96
2018-09-21T03:12:59.736Z,7.25
2018-09-21T03:25:25.175Z,6.55
2018-09-21T03:28:00.801Z,6.71
2018-09-21T03:30:36.610Z,6.86
2018-09-21T03:33:12.305Z,6.96
2018-09-21T03:35:48.254Z,6.98
2018-09-21T03:38:24.515Z,7.00
2018-09-21T03:41:00.223Z,6.71
2018-09-21T03:43:36.058Z,6.17
2018-09-21T03:46:11.925Z,6.00
2018-09-21T03:48:48.049Z,6.37
2018-09-21T03:51:23.882Z,6.60
2018-09-21T03:53:59.537Z,6.77
2018-09-21T03:56:35.772Z,6.79
2018-09-21T03:59:11.801Z,6.53
2018-09-21T04:01:51.126Z,6.10
2018-09-21T04:04:27.021Z,5.98
2018-09-21T04:07:02.973Z,5.90
2018-09-21T04:09:38.832Z,5.92
2018-09-21T04:12:14.595Z,6.08
2018-09-21T04:14:50.449Z,6.42
2018-09-21T04:17:26.314Z,6.67
2018-09-21T04:20:02.005Z,6.95
2018-09-21T04:22:37.770Z,6.89
2018-09-21T04:25:13.672Z,6.79
2018-09-21T04:27:52.084Z,6.83
2018-09-21T04:33:19.121Z,6.21
2018-09-21T04:35:54.877Z,6.20
2018-09-21T04:38:30.762Z,6.47
2018-09-21T04:41:06.428Z,6.42
2018-09-21T04:43:42.344Z,6.38
2018-09-21T04:46:18.832Z,6.31
2018-09-21T04:48:54.486Z,6.51
2018-09-21T04:51:30.277Z,6.90
2018-09-21T04:54:06.070Z,7.15
2018-09-21T04:56:41.917Z,7.20
2018-09-21T04:59:17.754Z,7.23
2018-09-21T05:01:53.618Z,7.32
2018-09-21T05:04:29.324Z,7.40
2018-09-21T05:07:05.090Z,7.50
2018-09-21T05:09:40.696Z,7.62
2018-09-21T05:12:16.467Z,7.81
2018-09-21T05:14:52.323Z,7.99
2018-09-21T05:17:27.968Z,8.56
2018-09-21T05:20:04.245Z,9.04
2018-09-21T05:22:39.999Z,9.21
2018-09-21T05:25:15.754Z,9.49
2018-09-21T05:27:51.502Z,9.26
2018-09-21T05:30:27.211Z,8.81
2018-09-21T05:33:02.968Z,8.67
2018-09-21T05:35:38.745Z,9.07
2018-09-21T05:38:14.461Z,9.54
2018-09-21T05:40:50.119Z,9.74
2018-09-21T05:43:25.961Z,10.06
2018-09-21T05:46:01.649Z,10.66
2018-09-21T05:48:37.262Z,11.02
2018-09-21T05:51:13.154Z,11.35
2018-09-21T05:53:48.966Z,11.83
2018-09-21T05:56:24.956Z,12.16
2018-09-21T05:59:00.716Z,12.37
2018-09-21T06:01:36.468Z,12.50
2018-09-21T06:04:12.374Z,12.77
2018-09-21T06:06:47.977Z,13.03
2018-09-21T06:09:23.687Z,13.05
2018-09-21T06:12:04.989Z,13.04
2018-09-21T06:17:22.124Z,12.79
2018-09-21T06:19:57.755Z,13.11
2018-09-21T06:22:44.848Z,13.68
2018-09-21T06:25:10.532Z,13.96
2018-09-21T06:27:46.241Z,14.07
2018-09-21T06:31:49.324Z,14.42
2018-09-21T06:34:25.158Z,14.52
2018-09-21T06:37:01.787Z,14.94
2018-09-21T06:39:38.410Z,15.18
2018-09-21T06:42:14.056Z,15.23
2018-09-21T06:44:50.000Z,14.82
2018-09-21T06:47:25.752Z,15.27
2018-09-21T06:50:01.507Z,15.56
2018-09-21T06:52:37.550Z,15.62
2018-09-21T06:55:13.293Z,15.35
2018-09-21T06:57:49.164Z,15.83
2018-09-21T07:00:24.778Z,16.36
2018-09-21T07:03:00.422Z,16.41
2018-09-21T07:05:36.124Z,16.66
2018-09-21T07:08:11.718Z,17.12
2018-09-21T07:10:47.315Z,17.51
2018-09-21T07:13:23.179Z,17.90
2018-09-21T07:16:00.207Z,18.14
2018-09-21T07:18:36.074Z,18.18
2018-09-21T07:21:11.905Z,18.05
2018-09-21T07:23:47.751Z,18.08
2018-09-21T07:26:23.756Z,17.79
2018-09-21T07:28:59.557Z,17.95
2018-09-21T07:31:35.375Z,17.83
2018-09-21T07:34:11.883Z,18.02
2018-09-21T07:36:47.928Z,18.40
2018-09-21T07:39:24.794Z,18.91
2018-09-21T07:42:00.579Z,19.07
2018-09-21T07:44:39.116Z,18.90
2018-09-21T07:47:14.972Z,18.91
2018-09-21T07:49:50.895Z,19.07
2018-09-21T07:52:26.718Z,19.33
2018-09-21T07:55:02.363Z,19.64
2018-09-21T07:57:38.106Z,20.13
2018-09-21T08:00:13.937Z,20.64
2018-09-21T08:02:49.793Z,20.91
2018-09-21T08:05:30.877Z,21.13
2018-09-21T08:08:07.059Z,20.91
2018-09-21T08:10:42.825Z,20.83
2018-09-21T08:13:18.765Z,20.54
2018-09-21T08:15:55.214Z,21.09
2018-09-21T08:18:31.005Z,21.52
2018-09-21T08:21:07.310Z,21.86
2018-09-21T08:23:43.297Z,22.06
2018-09-21T08:26:20.305Z,22.31
2018-09-21T08:28:56.183Z,22.42
2018-09-21T08:31:32.774Z,22.63
2018-09-21T08:34:08.678Z,22.78
2018-09-21T08:36:44.806Z,22.78
2018-09-21T08:39:20.913Z,22.60
2018-09-21T08:41:56.726Z,22.49
2018-09-21T08:44:32.363Z,22.27
2018-09-21T08:47:08.244Z,22.64
2018-09-21T08:49:43.952Z,23.07
2018-09-21T08:52:19.841Z,23.43
2018-09-21T08:54:55.629Z,22.93
2018-09-21T08:57:31.767Z,23.43
2018-09-21T09:00:07.800Z,23.94
2018-09-21T09:02:43.741Z,24.09
2018-09-21T09:05:22.329Z,24.32
2018-09-21T09:07:58.182Z,24.36
2018-09-21T09:10:33.888Z,24.46
2018-09-21T09:13:09.654Z,24.46
2018-09-21T09:15:45.550Z,23.91
2018-09-21T09:18:21.280Z,23.41
2018-09-21T09:20:57.176Z,23.83
2018-09-21T09:23:33.031Z,23.99
2018-09-21T09:26:08.818Z,24.17
2018-09-21T09:28:44.771Z,23.97
2018-09-21T09:31:20.641Z,24.09
2018-09-21T09:33:56.448Z,24.19
2018-09-21T09:36:32.324Z,24.33
2018-09-21T09:39:11.117Z,24.45
2018-09-21T09:41:46.750Z,24.67
2018-09-21T09:44:22.629Z,25.14
2018-09-21T09:46:58.424Z,25.35
2018-09-21T09:49:34.295Z,25.25
2018-09-21T09:52:10.051Z,25.24
2018-09-21T09:54:45.928Z,25.19
2018-09-21T09:57:22.735Z,25.13
2018-09-21T09:59:58.659Z,25.20
2018-09-21T10:02:34.609Z,25.79
2018-09-21T10:05:10.471Z,26.51
2018-09-21T10:07:46.536Z,26.59
2018-09-21T10:10:22.407Z,26.74
2018-09-21T10:12:58.437Z,26.59
2018-09-21T10:15:34.344Z,26.28
2018-09-21T10:18:10.265Z,26.33
2018-09-21T10:20:46.068Z,26.89
2018-09-21T10:23:22.217Z,27.29
2018-09-21T10:25:58.023Z,27.13
2018-09-21T10:28:34.034Z,27.28
2018-09-21T10:31:10.040Z,27.06
2018-09-21T10:33:45.986Z,26.95
2018-09-21T10:36:21.749Z,27.56
2018-09-21T10:38:58.085Z,28.01
2018-09-21T10:41:34.115Z,27.99
2018-09-21T10:44:10.082Z,28.28
2018-09-21T10:46:45.919Z,28.48
2018-09-21T10:49:21.708Z,29.01
2018-09-21T10:51:57.597Z,29.29
2018-09-21T10:54:33.908Z,29.17
2018-09-21T10:57:09.762Z,28.99
2018-09-21T10:59:46.783Z,28.82
2018-09-21T11:02:22.626Z,28.56
2018-09-21T11:04:58.563Z,28.18
2018-09-21T11:07:34.593Z,28.36
2018-09-21T11:10:10.502Z,28.74
2018-09-21T11:12:46.599Z,28.85
2018-09-21T11:15:22.554Z,28.70
2018-09-21T11:17:58.471Z,29.04
2018-09-21T11:20:34.383Z,28.87
2018-09-21T11:23:10.853Z,29.27
2018-09-21T11:25:46.754Z,28.49
2018-09-21T11:28:22.648Z,28.42
2018-09-21T11:30:58.573Z,28.76
2018-09-21T11:33:29.464Z,28.69
2018-09-21T11:36:00.825Z,29.14
2018-09-21T11:38:31.733Z,28.86
2018-09-21T11:41:02.651Z,28.51
2018-09-21T11:43:33.777Z,28.74
2018-09-21T11:46:04.646Z,29.06
2018-09-21T11:48:35.849Z,28.90
2018-09-21T11:51:06.952Z,28.71
2018-09-21T11:53:37.842Z,29.02
2018-09-21T11:56:08.684Z,29.20
2018-09-21T11:58:39.584Z,29.28
2018-09-21T12:01:10.441Z,28.88
2018-09-21T12:03:41.320Z,28.68
2018-09-21T12:06:12.182Z,29.06
2018-09-21T12:08:43.104Z,29.18
2018-09-21T12:11:14.136Z,29.69
2018-09-21T12:13:45.018Z,29.81
2018-09-21T12:16:15.842Z,30.08
2018-09-21T12:18:47.219Z,30.17
2018-09-21T12:21:18.213Z,30.56
2018-09-21T12:23:49.313Z,29.85
2018-09-21T12:26:20.181Z,30.00
2018-09-21T12:30:15.168Z,29.93
2018-09-21T12:32:46.297Z,30.56
2018-09-21T12:35:17.201Z,30.38
2018-09-21T12:37:48.064Z,30.30
2018-09-21T12:40:19.902Z,30.10
2018-09-21T12:42:50.768Z,29.76
2018-09-21T12:45:21.772Z,29.78
2018-09-21T12:47:53.236Z,29.32
2018-09-21T12:50:24.191Z,29.44
2018-09-21T12:52:55.634Z,29.86
2018-09-21T12:55:26.659Z,29.78
2018-09-21T12:57:57.572Z,29.92
2018-09-21T13:00:32.675Z,29.52
2018-09-21T13:03:03.513Z,29.17
2018-09-21T13:05:34.428Z,29.53
2018-09-21T13:08:05.292Z,29.84
2018-09-21T13:10:36.438Z,29.97
2018-09-21T13:13:07.278Z,30.00
2018-09-21T13:15:38.269Z,29.87
2018-09-21T13:18:09.404Z,30.24
2018-09-21T13:20:40.338Z,30.20
2018-09-21T13:23:11.449Z,29.86
2018-09-21T13:25:42.361Z,30.52
2018-09-21T13:28:13.465Z,31.07
2018-09-21T13:30:44.402Z,32.32
2018-09-21T13:33:15.336Z,31.66
2018-09-21T13:35:46.282Z,31.29
2018-09-21T13:38:17.139Z,32.01
2018-09-21T13:40:48.058Z,32.14
2018-09-21T13:43:18.940Z,32.87
2018-09-21T13:45:50.830Z,33.97
2018-09-21T13:48:21.668Z,33.85
2018-09-21T13:50:52.573Z,34.09
2018-09-21T13:53:23.407Z,32.69
2018-09-21T13:55:54.313Z,32.40
2018-09-21T13:58:25.181Z,32.52
2018-09-21T14:00:56.122Z,33.05
2018-09-21T14:03:26.990Z,33.35
2018-09-21T14:06:01.957Z,33.10
2018-09-21T14:08:33.102Z,33.88
2018-09-21T14:11:04.072Z,33.78
2018-09-21T14:13:34.936Z,32.27
2018-09-21T14:16:05.951Z,33.31
2018-09-21T14:18:36.820Z,31.87
2018-09-21T14:21:07.729Z,32.42
2018-09-21T14:23:38.721Z,32.71
2018-09-21T14:26:09.637Z,32.16
2018-09-21T14:28:40.478Z,31.70
2018-09-21T14:31:11.374Z,32.59
2018-09-21T14:33:42.225Z,31.93
2018-09-21T14:36:13.148Z,32.50
2018-09-21T14:38:43.980Z,33.17
2018-09-21T14:41:14.975Z,32.43
2018-09-21T14:43:51.733Z,29.77
2018-09-21T14:46:22.961Z,28.69
2018-09-21T14:48:53.836Z,28.16
2018-09-21T14:51:24.764Z,27.73
2018-09-21T14:53:55.619Z,27.37
2018-09-21T14:56:26.629Z,27.09
2018-09-21T14:58:57.493Z,26.86
2018-09-21T15:04:04.433Z,26.19
2018-09-21T15:06:35.291Z,25.84
2018-09-21T15:09:08.332Z,25.96
2018-09-21T15:11:39.720Z,25.99
2018-09-21T15:14:11.004Z,25.72
2018-09-21T15:16:41.877Z,25.97
2018-09-21T15:19:12.817Z,25.62
2018-09-21T15:21:43.672Z,25.80
2018-09-21T15:24:14.882Z,25.53
2018-09-21T15:26:45.755Z,25.52
2018-09-21T15:29:16.676Z,25.28
2018-09-21T15:31:47.599Z,25.05
2018-09-21T15:34:18.628Z,24.76
2018-09-21T15:36:49.948Z,24.79
2018-09-21T15:39:20.889Z,24.69
2018-09-21T15:41:51.753Z,24.47
2018-09-21T15:44:22.683Z,24.25
2018-09-21T15:46:53.561Z,24.15
2018-09-21T15:49:24.600Z,24.02
2018-09-21T15:51:55.577Z,23.96
2018-09-21T15:54:26.526Z,23.97
2018-09-21T15:56:58.076Z,23.83
2018-09-21T15:59:29.175Z,23.51
2018-09-21T16:02:00.030Z,23.29
2018-09-21T16:04:30.956Z,23.32
2018-09-21T16:07:02.111Z,23.05
2018-09-21T16:09:33.273Z,22.78
2018-09-21T16:12:04.119Z,22.57
2018-09-21T16:14:35.074Z,22.39
2018-09-21T16:17:05.941Z,22.19
2018-09-21T16:19:36.846Z,21.90
2018-09-21T16:22:07.795Z,21.63
2018-09-21T16:24:38.868Z,21.52
2018-09-21T16:27:09.733Z,21.23
2018-09-21T16:29:40.678Z,21.14
2018-09-21T16:32:11.546Z,21.21
2018-09-21T16:34:42.642Z,21.20
2018-09-21T16:37:13.499Z,21.08
2018-09-21T16:39:44.417Z,21.14
2018-09-21T16:42:15.281Z,20.97
2018-09-21T16:44:46.205Z,20.82
2018-09-21T16:47:17.281Z,20.72
2018-09-21T16:49:48.207Z,20.58
2018-09-21T16:52:26.642Z,20.65
2018-09-21T16:54:58.107Z,20.43
2018-09-21T16:57:29.256Z,20.18
2018-09-21T17:00:00.375Z,19.97
2018-09-21T17:02:31.264Z,19.76
2018-09-21T17:05:02.188Z,19.59
2018-09-21T17:07:33.201Z,19.69
2018-09-21T17:10:04.352Z,19.67
2018-09-21T17:12:37.913Z,19.49
2018-09-21T17:15:08.867Z,19.33
2018-09-21T17:17:39.730Z,19.14
2018-09-21T17:20:10.684Z,18.94
2018-09-21T17:22:41.820Z,18.90
2018-09-21T17:25:12.817Z,19.13
2018-09-21T17:27:43.882Z,18.92
2018-09-21T17:30:15.947Z,18.64
2018-09-21T17:32:46.815Z,18.51
2018-09-21T17:35:17.761Z,18.45
2018-09-21T17:37:48.718Z,18.40
2018-09-21T17:40:19.971Z,18.59
2018-09-21T17:42:50.981Z,18.20
2018-09-21T17:45:22.718Z,18.21
2018-09-21T17:47:53.587Z,18.29
2018-09-21T17:50:24.509Z,18.37
2018-09-21T17:52:55.374Z,18.08
2018-09-21T17:55:26.387Z,18.25
2018-09-21T17:57:57.401Z,18.07
2018-09-21T18:00:28.692Z,17.93
2018-09-21T18:02:59.602Z,17.74
2018-09-21T18:05:30.551Z,17.56
2018-09-21T18:08:01.493Z,17.37
2018-09-21T18:10:32.425Z,17.17
2018-09-21T18:13:07.597Z,17.28
2018-09-21T18:15:40.570Z,16.92
2018-09-21T18:18:14.550Z,16.74
2018-09-21T18:20:50.694Z,16.94
2018-09-21T18:23:35.390Z,16.84
2018-09-21T18:26:10.701Z,16.68
2018-09-21T18:28:44.964Z,16.68
2018-09-21T18:31:20.146Z,16.63
2018-09-21T18:33:58.924Z,16.58
2018-09-21T18:36:36.704Z,16.65
2018-09-21T18:39:17.557Z,16.70
2018-09-21T18:41:55.150Z,16.45
2018-09-21T18:44:30.290Z,16.38
2018-09-21T18:47:06.046Z,16.33
2018-09-21T18:49:40.177Z,16.43
2018-09-21T18:55:00.157Z,15.97
2018-09-21T18:57:36.368Z,16.12
2018-09-21T19:00:11.975Z,16.09
2018-09-21T19:02:46.475Z,16.10
2018-09-21T19:05:21.217Z,16.16
2018-09-21T19:07:57.377Z,15.41
2018-09-21T19:10:35.999Z,15.03
2018-09-21T19:13:12.780Z,15.03
2018-09-21T19:15:51.046Z,14.99
2018-09-21T19:18:31.897Z,14.73
2018-09-21T19:21:10.818Z,14.56
2018-09-21T19:23:47.946Z,14.52
2018-09-21T19:26:22.914Z,14.56
2018-09-21T19:28:57.067Z,14.59
2018-09-21T19:31:30.657Z,14.43
2018-09-21T19:34:05.654Z,14.37
2018-09-21T19:36:40.296Z,14.31
2018-09-21T19:39:14.856Z,14.46
2018-09-21T19:41:50.442Z,14.51
2018-09-21T19:44:26.303Z,14.62
2018-09-21T19:47:01.200Z,14.65
2018-09-21T19:49:36.743Z,14.50
2018-09-21T19:52:10.614Z,14.30
2018-09-21T19:54:43.842Z,13.98
2018-09-21T19:57:17.141Z,13.94
2018-09-21T19:59:57.291Z,14.11
2018-09-21T20:02:36.869Z,14.04
2018-09-21T20:05:15.919Z,13.67
2018-09-21T20:07:54.326Z,13.70
2018-09-21T20:10:34.279Z,13.54
2018-09-21T20:13:11.519Z,13.68
2018-09-21T20:15:51.447Z,13.83
2018-09-21T20:18:28.866Z,13.83
2018-09-21T20:21:10.347Z,13.93
2018-09-21T20:23:48.825Z,14.01
2018-09-21T20:26:27.924Z,14.00
2018-09-21T20:29:07.039Z,14.06
2018-09-21T20:31:50.108Z,13.61
2018-09-21T20:34:30.317Z,13.46
2018-09-21T20:37:07.423Z,13.19
2018-09-21T20:39:47.216Z,12.95
2018-09-21T20:42:23.539Z,12.77
2018-09-21T20:44:59.700Z,12.62
2018-09-21T20:47:36.192Z,12.63
2018-09-21T20:50:12.425Z,12.60
2018-09-21T20:52:48.255Z,12.47
2018-09-21T20:55:24.427Z,12.08
2018-09-21T20:58:00.592Z,11.83
2018-09-21T21:00:37.645Z,11.66
2018-09-21T21:03:13.519Z,11.75
2018-09-21T21:05:49.474Z,11.86
2018-09-21T21:08:25.439Z,12.23
2018-09-21T21:11:01.401Z,12.30
2018-09-21T21:13:37.316Z,12.19
2018-09-21T21:16:13.175Z,11.90
2018-09-21T21:18:49.087Z,11.66
2018-09-21T21:21:25.392Z,11.35
2018-09-21T21:27:23.931Z,11.54
2018-09-21T21:29:59.852Z,11.63
2018-09-21T21:32:35.737Z,11.68
2018-09-21T21:35:11.713Z,12.00
2018-09-21T21:37:47.909Z,12.05
2018-09-21T21:40:23.852Z,12.10
2018-09-21T21:42:59.693Z,11.86
2018-09-21T21:45:35.507Z,11.82
2018-09-21T21:48:11.367Z,11.66
2018-09-21T21:50:47.721Z,11.32
2018-09-21T21:53:23.844Z,11.14
2018-09-21T21:55:59.611Z,11.09
2018-09-21T21:58:35.549Z,10.95
2018-09-21T22:01:16.340Z,11.05
2018-09-21T22:03:52.372Z,11.29
2018-09-21T22:06:28.356Z,11.61
2018-09-21T22:09:05.537Z,11.82
2018-09-21T22:11:46.449Z,12.00
2018-09-21T22:14:22.347Z,11.81
2018-09-21T22:16:58.226Z,11.32
2018-09-21T22:19:35.151Z,11.38
2018-09-21T22:22:11.088Z,11.09
2018-09-21T22:24:47.341Z,10.85
2018-09-21T22:27:23.249Z,11.10
2018-09-21T22:30:00.726Z,11.11
2018-09-21T22:32:36.563Z,10.91
2018-09-21T22:35:12.556Z,10.66
2018-09-21T22:37:48.774Z,10.28
2018-09-21T22:40:25.555Z,10.41
2018-09-21T22:43:01.805Z,10.45
2018-09-21T22:45:37.651Z,10.47
2018-09-21T22:48:13.445Z,10.87
2018-09-21T22:50:49.395Z,10.86
2018-09-21T22:53:25.211Z,10.96
2018-09-21T22:56:01.156Z,10.93
2018-09-21T22:58:37.486Z,10.77
2018-09-21T23:01:13.360Z,10.67
2018-09-21T23:03:49.301Z,10.48
2018-09-21T23:06:25.561Z,10.57
2018-09-21T23:09:01.624Z,10.52
2018-09-21T23:11:37.703Z,10.33
2018-09-21T23:14:13.621Z,10.30
2018-09-21T23:16:49.588Z,9.99
2018-09-21T23:19:25.849Z,10.05
2018-09-21T23:22:01.909Z,10.07
2018-09-21T23:24:38.127Z,9.84
2018-09-21T23:27:14.123Z,9.62
2018-09-21T23:29:50.048Z,9.51
2018-09-21T23:32:25.948Z,9.43
2018-09-21T23:35:02.271Z,9.65
2018-09-21T23:37:38.170Z,9.58
2018-09-21T23:40:14.405Z,9.48
2018-09-21T23:42:50.401Z,9.53
2018-09-21T23:45:26.344Z,9.37
2018-09-21T23:48:02.217Z,9.34
2018-09-21T23:50:38.009Z,9.59
2018-09-21T23:53:13.959Z,9.54
2018-09-21T23:55:49.786Z,8.98
2018-09-21T23:58:25.710Z,8.73
